Time;durP1;ratioP1;P1;durP2;ratioP2;P2;SDS_P1;SDS_P2;PMS_P1;PMS_P2;Temp;Humidity;BMP_temperature;BMP_pressure;BME280_temperature;BME280_humidity;BME280_pressure;Samples;Min_cycle;Max_cycle;Signal;HPM_P1;HPM_P2
2022/05/19 00:00:12;;;;;;;;;12.50;11.25;;;;;25.69;59.80;101222.84;5046647;28;45463;-55
2022/05/19 00:02:37;;;;;;;;;11.25;10.75;;;;;25.67;59.21;101220.31;5053096;28;45573;-57
2022/05/19 00:05:03;;;;;;;;;13.25;12.50;;;;;25.62;58.92;101219.78;5040907;28;46379;-55
2022/05/19 00:07:29;;;;;;;;;14.75;11.25;;;;;25.58;60.18;101221.03;5040280;28;45830;-55
2022/05/19 00:09:54;;;;;;;;;13.75;11.50;;;;;25.53;59.20;101227.72;5040585;28;45344;-55
2022/05/19 00:12:22;;;;;;;;;13.00;11.25;;;;;25.54;58.29;101230.25;5038764;28;45204;-54
2022/05/19 00:14:48;;;;;;;;;13.50;12.50;;;;;25.55;58.60;101229.25;5035288;28;46628;-56
2022/05/19 00:17:14;;;;;;;;;9.25;9.00;;;;;25.55;58.32;101223.94;5051517;28;45544;-54
2022/05/19 00:19:40;;;;;;;;;13.75;11.50;;;;;25.58;58.42;101215.69;5042186;28;45403;-54
2022/05/19 00:22:06;;;;;;;;;14.25;14.00;;;;;25.57;59.13;101211.34;5040047;28;45343;-55
2022/05/19 00:24:31;;;;;;;;;13.00;13.00;;;;;25.57;58.62;101206.03;5048943;28;46662;-55
2022/05/19 00:26:57;;;;;;;;;15.00;15.00;;;;;25.57;59.13;101194.53;5042191;28;45469;-54
2022/05/19 00:29:22;;;;;;;;;13.25;12.50;;;;;25.56;59.13;101192.84;5045536;28;45361;-55
2022/05/19 00:31:47;;;;;;;;;12.25;12.25;;;;;25.52;59.04;101192.25;5040794;28;45364;-54
2022/05/19 00:34:13;;;;;;;;;13.00;11.00;;;;;25.47;58.88;101186.47;5039745;28;45368;-55
2022/05/19 00:36:39;;;;;;;;;14.00;10.00;;;;;25.44;58.56;101194.72;5040059;28;45285;-54
2022/05/19 00:39:04;;;;;;;;;10.00;10.00;;;;;25.41;59.28;101187.81;5040055;28;45425;-55
2022/05/19 00:41:30;;;;;;;;;11.75;10.75;;;;;25.38;59.25;101184.56;5040202;28;45685;-55
2022/05/19 00:43:59;;;;;;;;;12.75;10.50;;;;;25.35;59.07;101185.66;5050945;28;46443;-54
2022/05/19 00:46:30;;;;;;;;;14.00;11.50;;;;;25.34;58.63;101169.84;5039924;28;45715;-54
2022/05/19 00:49:02;;;;;;;;;15.75;12.25;;;;;25.29;59.21;101161.41;5029508;28;45372;-54
2022/05/19 00:51:33;;;;;;;;;13.25;10.50;;;;;25.30;58.47;101166.59;5047924;28;45461;-54
2022/05/19 00:53:59;;;;;;;;;16.25;13.50;;;;;25.29;59.04;101150.75;5037968;28;47029;-54
2022/05/19 00:56:34;;;;;;;;;14.00;11.75;;;;;25.30;58.53;101152.44;5037994;28;45781;-56
2022/05/19 00:59:10;;;;;;;;;13.00;13.00;;;;;25.31;58.54;101146.16;5037284;28;45763;-54
2022/05/19 01:01:38;;;;;;;;;11.50;10.25;;;;;25.30;58.95;101149.78;5036527;28;45493;-55
2022/05/19 01:04:15;;;;;;;;;15.75;14.00;;;;;25.28;59.24;101143.75;5043522;28;46250;-54
2022/05/19 01:06:45;;;;;;;;;11.75;10.50;;;;;25.27;59.44;101145.56;5050135;28;45615;-55
2022/05/19 01:09:14;;;;;;;;;15.50;12.25;;;;;25.26;60.21;101137.72;5050134;28;45489;-55
2022/05/19 01:11:40;;;;;;;;;13.50;12.25;;;;;25.23;59.82;101136.16;5037417;28;45465;-56
2022/05/19 01:14:06;;;;;;;;;12.00;11.50;;;;;25.23;59.86;101136.16;5038246;28;46393;-55
2022/05/19 01:16:32;;;;;;;;;15.75;13.75;;;;;25.24;59.99;101134.34;5034729;28;45723;-55
2022/05/19 01:18:58;;;;;;;;;16.00;13.75;;;;;25.23;59.75;101124.63;5034926;28;45511;-55
2022/05/19 01:21:28;;;;;;;;;15.50;15.00;;;;;25.21;59.79;101127.44;5036541;28;45473;-55
2022/05/19 01:24:25;;;;;;;;;17.25;14.25;;;;;25.20;60.30;101127.56;5037410;28;46620;-53
2022/05/19 01:26:53;;;;;;;;;15.25;13.25;;;;;25.21;60.18;101127.44;5035430;28;45852;-54
2022/05/19 01:29:26;;;;;;;;;15.00;12.00;;;;;25.24;59.86;101132.53;5035256;28;45494;-54
2022/05/19 01:31:56;;;;;;;;;14.75;11.50;;;;;25.24;59.37;101135.19;5035154;28;46598;-53
2022/05/19 01:34:25;;;;;;;;;12.00;12.00;;;;;25.27;60.43;101139.41;5038242;28;46739;-52
2022/05/19 01:36:51;;;;;;;;;12.75;12.25;;;;;25.25;59.65;101128.03;5035399;28;45456;-52
2022/05/19 01:39:21;;;;;;;;;13.00;12.50;;;;;25.25;59.47;101128.88;5046184;28;45534;-52
2022/05/19 01:41:58;;;;;;;;;14.75;13.00;;;;;25.26;59.21;101132.38;5037343;28;45446;-54
2022/05/19 01:44:48;;;;;;;;;14.25;13.00;;;;;25.27;59.85;101126.09;5037243;28;45541;-53
2022/05/19 01:47:32;;;;;;;;;17.00;14.25;;;;;25.28;59.72;101128.63;5033428;28;45221;-54
2022/05/19 01:49:57;;;;;;;;;17.25;12.50;;;;;25.29;59.92;101130.31;5045889;28;45291;-54
2022/05/19 01:52:36;;;;;;;;;16.00;13.33;;;;;25.30;59.95;101134.66;5041658;28;45271;-53
2022/05/19 01:55:11;;;;;;;;;13.25;13.00;;;;;25.30;59.81;101131.16;5038390;28;45422;-53
2022/05/19 01:57:48;;;;;;;;;17.00;14.50;;;;;25.29;59.97;101127.66;5025761;28;45734;-52
2022/05/19 02:00:18;;;;;;;;;16.75;13.25;;;;;25.30;59.87;101133.81;5038517;28;45352;-53
2022/05/19 02:02:48;;;;;;;;;13.25;12.50;;;;;25.29;59.53;101132.13;5040510;28;45304;-52
2022/05/19 02:05:36;;;;;;;;;14.50;13.00;;;;;25.31;60.04;101135.50;5041835;28;45601;-53
2022/05/19 02:08:06;;;;;;;;;13.75;12.00;;;;;25.31;59.87;101132.84;5043156;28;45593;-53
2022/05/19 02:10:36;;;;;;;;;15.50;15.00;;;;;25.32;59.74;101135.38;5045451;28;45442;-54
2022/05/19 02:13:04;;;;;;;;;15.50;14.75;;;;;25.33;59.93;101130.91;5057904;28;45419;-53
2022/05/19 02:15:34;;;;;;;;;15.25;13.25;;;;;25.31;59.75;101132.84;5045882;28;45671;-53
2022/05/19 02:18:00;;;;;;;;;18.00;15.00;;;;;25.29;60.06;101132.13;5034633;28;45241;-53
2022/05/19 02:20:28;;;;;;;;;19.00;14.25;;;;;25.27;60.26;101134.06;5044248;28;45418;-53
2022/05/19 02:22:54;;;;;;;;;16.25;13.50;;;;;25.24;60.42;101134.34;5051833;28;45249;-53
2022/05/19 02:25:31;;;;;;;;;18.00;15.00;;;;;25.16;60.16;101125.16;5056676;28;45617;-55
2022/05/19 02:28:11;;;;;;;;;15.50;13.50;;;;;25.18;61.25;101133.00;5047306;28;45872;-54
2022/05/19 02:30:39;;;;;;;;;15.50;14.50;;;;;25.16;60.51;101138.44;5054332;28;45184;-55
2022/05/19 02:33:05;;;;;;;;;15.75;13.00;;;;;25.17;60.91;101126.84;5053779;28;45893;-55
2022/05/19 02:35:30;;;;;;;;;16.75;13.50;;;;;25.16;60.42;101133.13;5041992;28;46239;-55
2022/05/19 02:37:57;;;;;;;;;14.75;13.25;;;;;25.17;60.40;101142.81;5047354;28;45346;-54
2022/05/19 02:40:26;;;;;;;;;15.00;14.00;;;;;25.17;60.48;101133.97;5042578;28;45461;-54
2022/05/19 02:42:52;;;;;;;;;16.00;16.00;;;;;25.17;60.90;101134.81;5041402;28;45341;-52
2022/05/19 02:45:19;;;;;;;;;15.25;13.25;;;;;25.17;60.51;101140.13;5043966;28;45438;-54
2022/05/19 02:47:45;;;;;;;;;16.75;14.75;;;;;25.17;60.48;101129.50;5051693;28;45391;-53
2022/05/19 02:50:12;;;;;;;;;17.00;13.00;;;;;25.15;60.46;101131.44;5050526;28;45299;-58
2022/05/19 02:52:37;;;;;;;;;19.00;15.00;;;;;25.13;60.82;101127.22;5045876;28;45431;-53
2022/05/19 02:55:04;;;;;;;;;15.50;14.25;;;;;25.10;60.63;101124.81;5043122;28;45401;-52
2022/05/19 02:57:29;;;;;;;;;17.00;15.00;;;;;25.08;61.22;101130.28;5041819;28;45459;-52
2022/05/19 02:59:54;;;;;;;;;16.50;14.00;;;;;25.08;61.22;101126.78;5041281;28;45634;-53
2022/05/19 03:02:20;;;;;;;;;14.50;14.00;;;;;25.10;61.74;101132.81;5041547;28;45224;-52
2022/05/19 03:04:45;;;;;;;;;16.50;14.00;;;;;25.09;61.64;101131.97;5046402;28;45433;-52
2022/05/19 03:07:11;;;;;;;;;16.25;16.00;;;;;25.08;61.08;101124.94;5041392;28;45296;-52
2022/05/19 03:09:36;;;;;;;;;15.50;13.75;;;;;25.09;61.01;101137.28;5041964;28;45312;-51
2022/05/19 03:12:02;;;;;;;;;15.75;13.25;;;;;25.10;61.49;101130.16;5040517;28;45281;-51
2022/05/19 03:14:30;;;;;;;;;14.00;14.00;;;;;25.08;61.16;101124.94;5043154;28;46914;-53
2022/05/19 03:16:55;;;;;;;;;14.00;14.00;;;;;25.08;60.98;101132.94;5041256;28;45708;-54
2022/05/19 03:19:21;;;;;;;;;15.50;13.50;;;;;25.07;61.07;101138.38;5041555;28;45439;-53
2022/05/19 03:21:47;;;;;;;;;12.75;12.00;;;;;25.07;61.27;101133.91;5039579;28;45509;-54
2022/05/19 03:24:12;;;;;;;;;16.75;15.00;;;;;25.05;61.42;101133.19;5047694;28;47439;-54
2022/05/19 03:26:38;;;;;;;;;15.50;14.50;;;;;25.07;61.84;101123.28;5060946;28;45458;-54
2022/05/19 03:29:04;;;;;;;;;15.50;15.50;;;;;25.06;61.63;101126.91;5042723;28;45292;-54
2022/05/19 03:31:30;;;;;;;;;19.00;16.75;;;;;25.06;61.53;101126.06;5040039;28;45560;-55
2022/05/19 03:33:55;;;;;;;;;15.00;14.00;;;;;25.07;61.39;101130.41;5039543;28;45404;-54
2022/05/19 03:36:21;;;;;;;;;16.25;15.25;;;;;25.07;61.69;101125.09;5040781;28;45197;-54
2022/05/19 03:38:47;;;;;;;;;14.75;12.75;;;;;25.05;61.43;101130.53;5041413;28;45430;-55
2022/05/19 03:41:12;;;;;;;;;14.75;14.50;;;;;25.04;61.24;101122.69;5041288;28;45366;-55
2022/05/19 03:43:38;;;;;;;;;14.00;13.50;;;;;25.03;61.48;101127.16;5039010;28;46612;-55
2022/05/19 03:46:04;;;;;;;;;13.00;12.50;;;;;25.03;61.35;101127.16;5041022;28;45387;-55
2022/05/19 03:48:37;;;;;;;;;14.25;14.25;;;;;25.04;61.39;101128.00;5040561;28;45463;-55
2022/05/19 03:51:09;;;;;;;;;17.25;15.75;;;;;25.02;61.35;101122.78;5051071;28;45420;-55
2022/05/19 03:53:35;;;;;;;;;13.50;13.00;;;;;25.01;60.96;101126.41;5038990;28;46169;-55
2022/05/19 03:56:00;;;;;;;;;16.50;14.00;;;;;25.02;60.87;101122.78;5041136;28;45326;-54
2022/05/19 03:58:26;;;;;;;;;17.25;14.50;;;;;25.02;61.18;101133.41;5041082;28;45246;-54
2022/05/19 04:00:51;;;;;;;;;15.75;12.75;;;;;25.02;61.78;101130.75;5045606;28;45430;-53
2022/05/19 04:03:17;;;;;;;;;14.00;13.00;;;;;25.04;61.96;101134.16;5051188;28;45398;-54
2022/05/19 04:05:43;;;;;;;;;18.00;15.75;;;;;25.06;61.20;101126.91;5041066;28;45225;-54
2022/05/19 04:08:08;;;;;;;;;16.50;15.75;;;;;25.03;61.63;101132.47;5041073;28;45435;-55
2022/05/19 04:10:34;;;;;;;;;16.00;15.00;;;;;25.03;61.27;101134.25;5039853;28;45467;-55
2022/05/19 04:12:59;;;;;;;;;17.25;14.25;;;;;25.01;61.18;101133.53;5037485;28;46404;-53
2022/05/19 04:15:26;;;;;;;;;17.25;16.75;;;;;24.99;61.20;101132.78;5040729;28;45375;-54
2022/05/19 04:17:51;;;;;;;;;24.50;17.00;;;;;24.99;61.40;101141.66;5041077;28;45486;-54
2022/05/19 04:20:16;;;;;;;;;21.50;14.25;;;;;24.98;61.54;101139.94;5040560;28;45539;-53
2022/05/19 04:22:42;;;;;;;;;18.00;18.00;;;;;24.97;61.36;101138.25;5039100;28;46385;-54
2022/05/19 04:25:10;;;;;;;;;18.00;16.50;;;;;24.97;60.87;101140.91;5051289;28;45327;-54
2022/05/19 04:27:36;;;;;;;;;18.50;16.00;;;;;24.94;61.10;101127.84;5052715;28;45221;-54
2022/05/19 04:30:03;;;;;;;;;14.50;14.50;;;;;24.97;62.16;101129.41;5040276;28;45864;-52
2022/05/19 04:32:29;;;;;;;;;17.00;15.75;;;;;24.96;61.51;101133.06;5039748;28;45283;-53
2022/05/19 04:34:54;;;;;;;;;15.75;13.25;;;;;24.94;61.48;101127.00;5038669;28;45395;-52
2022/05/19 04:37:19;;;;;;;;;17.50;15.50;;;;;24.95;61.94;101129.53;5035920;28;45658;-52
2022/05/19 04:39:45;;;;;;;;;17.75;15.00;;;;;24.96;62.09;101138.38;5040319;28;45491;-54
2022/05/19 04:42:12;;;;;;;;;18.75;15.25;;;;;24.97;61.32;101142.72;5039096;28;46200;-52
2022/05/19 04:44:38;;;;;;;;;21.00;16.25;;;;;24.98;61.37;101145.25;5033185;28;45307;-52
2022/05/19 04:47:04;;;;;;;;;18.00;16.00;;;;;24.99;61.94;101144.31;5040253;28;45318;-51
2022/05/19 04:49:30;;;;;;;;;17.75;15.25;;;;;25.00;61.77;101147.81;5039950;28;45380;-53
2022/05/19 04:51:56;;;;;;;;;18.00;15.75;;;;;25.00;61.41;101151.31;5039031;28;45504;-52
2022/05/19 04:54:21;;;;;;;;;18.00;16.00;;;;;25.00;61.98;101171.75;5038463;28;45679;-54
2022/05/19 04:56:47;;;;;;;;;17.00;17.00;;;;;24.96;61.97;101176.44;5039280;28;45489;-52
2022/05/19 04:59:15;;;;;;;;;17.75;15.75;;;;;24.97;61.29;101170.16;5039059;28;45424;-52
2022/05/19 05:01:44;;;;;;;;;20.50;15.00;;;;;25.00;62.04;101187.69;5051977;28;46293;-53
2022/05/19 05:04:10;;;;;;;;;17.75;15.75;;;;;24.97;61.79;101188.75;5037894;28;45351;-53
2022/05/19 05:06:36;;;;;;;;;19.25;19.00;;;;;24.97;62.57;101191.41;5038814;28;45459;-53
2022/05/19 05:09:02;;;;;;;;;19.75;16.50;;;;;25.01;61.74;101192.03;5047690;28;45306;-52
2022/05/19 05:11:28;;;;;;;;;19.25;16.25;;;;;25.04;61.45;101183.84;5037479;28;45596;-52
2022/05/19 05:13:53;;;;;;;;;20.50;18.25;;;;;25.05;61.49;101199.69;5038449;28;45367;-53
2022/05/19 05:16:18;;;;;;;;;20.50;18.75;;;;;25.05;61.79;101199.69;5038428;28;45481;-53
2022/05/19 05:18:44;;;;;;;;;26.00;18.25;;;;;25.07;62.07;101192.41;5039044;28;45279;-53
2022/05/19 05:21:13;;;;;;;;;20.50;17.50;;;;;25.08;61.95;101195.91;5039142;28;46678;-53
2022/05/19 05:23:38;;;;;;;;;20.00;17.75;;;;;25.10;61.41;101191.31;5043787;28;45542;-52
2022/05/19 05:26:05;;;;;;;;;15.75;15.75;;;;;25.11;61.52;101195.66;5044660;28;45415;-55
2022/05/19 05:28:31;;;;;;;;;17.25;15.00;;;;;25.16;62.06;101228.06;5037872;28;45261;-54
2022/05/19 05:30:56;;;;;;;;;17.75;15.50;;;;;25.21;61.68;101254.28;5050260;28;46452;-51
2022/05/19 05:33:22;;;;;;;;;16.50;16.50;;;;;25.27;61.54;101245.81;5041580;28;45257;-51
2022/05/19 05:35:47;;;;;;;;;20.00;14.50;;;;;25.28;61.85;101223.56;5039278;28;45309;-51
2022/05/19 05:38:13;;;;;;;;;18.75;15.00;;;;;25.31;60.92;101237.44;5038320;28;45512;-50
2022/05/19 05:40:38;;;;;;;;;20.25;16.00;;;;;25.27;61.32;101259.97;5037487;28;46590;-52
2022/05/19 05:43:09;;;;;;;;;17.75;15.75;;;;;25.23;61.70;101244.34;5051446;28;45290;-53
2022/05/19 05:45:35;;;;;;;;;20.25;18.50;;;;;25.22;61.14;101245.31;5031397;28;45332;-52
2022/05/19 05:48:00;;;;;;;;;20.75;20.75;;;;;25.26;61.26;101252.09;5036199;28;45608;-51
2022/05/19 05:50:26;;;;;;;;;36.50;31.50;;;;;25.30;61.60;101246.41;5048447;28;47141;-52
2022/05/19 05:52:51;;;;;;;;;20.00;17.75;;;;;25.35;60.67;101254.00;5040591;28;45145;-51
2022/05/19 05:55:17;;;;;;;;;21.50;21.25;;;;;25.36;61.12;101245.91;5038462;28;45441;-53
2022/05/19 05:57:42;;;;;;;;;18.50;16.25;;;;;25.40;61.04;101242.00;5037783;28;45510;-53
2022/05/19 06:00:09;;;;;;;;;41.00;34.25;;;;;25.46;60.91;101232.69;5035928;28;46268;-52
2022/05/19 06:02:34;;;;;;;;;30.75;27.25;;;;;25.50;61.09;101250.09;5041346;28;45212;-55
2022/05/19 06:05:00;;;;;;;;;25.00;16.50;;;;;25.46;60.84;101241.53;5040525;28;45244;-53
2022/05/19 06:07:27;;;;;;;;;21.75;18.00;;;;;25.40;60.79;101233.19;5046532;28;45370;-53
2022/05/19 06:09:53;;;;;;;;;20.50;17.75;;;;;25.41;61.06;101227.72;5038798;28;47591;-53
2022/05/19 06:12:19;;;;;;;;;30.50;28.50;;;;;25.47;60.94;101234.38;5037482;28;45847;-52
2022/05/19 06:14:44;;;;;;;;;54.25;44.75;;;;;25.53;61.56;101228.56;5043188;28;45457;-53
2022/05/19 06:17:10;;;;;;;;;21.00;16.00;;;;;25.60;60.71;101231.53;5045534;28;45535;-52
2022/05/19 06:19:35;;;;;;;;;28.25;21.25;;;;;25.58;60.16;101234.31;5038046;28;46268;-52
2022/05/19 06:22:00;;;;;;;;;20.00;17.00;;;;;25.57;60.64;101237.13;5042726;28;45476;-62
2022/05/19 06:24:26;;;;;;;;;21.50;19.00;;;;;25.57;61.08;101240.63;5053515;28;45215;-52
2022/05/19 06:26:52;;;;;;;;;22.75;21.00;;;;;25.53;61.14;101239.19;5039215;28;45280;-53
2022/05/19 06:29:17;;;;;;;;;23.25;19.25;;;;;25.47;61.19;101242.38;5044946;28;46989;-55
2022/05/19 06:31:42;;;;;;;;;19.25;18.25;;;;;25.38;62.03;101243.09;5044841;28;45391;-54
2022/05/19 06:34:08;;;;;;;;;19.25;17.75;;;;;25.33;62.73;101245.31;5036690;28;45464;-54
2022/05/19 06:36:33;;;;;;;;;22.00;19.75;;;;;25.32;61.85;101235.63;5037365;28;45533;-55
2022/05/19 06:38:58;;;;;;;;;17.75;17.00;;;;;25.35;61.91;101238.03;5037471;28;45497;-54
2022/05/19 06:44:08;;;;;;;;;24.00;17.75;;;;;25.40;61.39;101239.34;5038058;28;45193;-55
2022/05/19 06:46:33;;;;;;;;;25.00;19.25;;;;;25.38;61.76;101248.44;5038287;28;45384;-54
2022/05/19 06:49:02;;;;;;;;;20.75;17.00;;;;;25.32;61.85;101244.47;5038226;28;45603;-54
2022/05/19 06:51:28;;;;;;;;;21.00;15.00;;;;;25.32;61.63;101251.59;5027728;28;45275;-54
2022/05/19 06:53:54;;;;;;;;;19.50;16.25;;;;;25.22;61.90;101243.50;5046949;28;45354;-53
2022/05/19 06:56:19;;;;;;;;;23.25;21.00;;;;;25.21;62.36;101251.59;5041400;28;45347;-55
2022/05/19 06:58:44;;;;;;;;;22.75;18.50;;;;;25.20;63.49;101258.75;5040084;28;46228;-55
2022/05/19 07:01:10;;;;;;;;;26.75;22.25;;;;;25.15;63.32;101259.13;5041477;28;46511;-54
2022/05/19 07:03:35;;;;;;;;;26.25;23.75;;;;;25.08;62.76;101249.97;5052828;28;45169;-54
2022/05/19 07:06:01;;;;;;;;;22.75;17.25;;;;;25.16;62.89;101254.66;5039736;28;45639;-55
2022/05/19 07:08:26;;;;;;;;;29.50;24.00;;;;;25.25;62.50;101258.41;5037357;28;46479;-54
2022/05/19 07:10:52;;;;;;;;;22.50;22.00;;;;;25.29;62.65;101265.16;5054269;28;45567;-54
2022/05/19 07:13:17;;;;;;;;;23.75;22.75;;;;;25.26;62.69;101263.59;5047921;28;45457;-53
2022/05/19 07:15:42;;;;;;;;;26.25;21.50;;;;;25.28;62.70;101263.47;5047706;28;45221;-53
2022/05/19 07:18:08;;;;;;;;;22.00;19.00;;;;;25.26;63.66;101260.09;5052323;28;46332;-53
2022/05/19 07:20:43;;;;;;;;;25.50;20.50;;;;;25.17;63.27;101264.31;5043670;28;45400;-54
2022/05/19 07:23:12;;;;;;;;;24.00;21.00;;;;;25.22;63.30;101274.59;5046940;28;45356;-55
2022/05/19 07:25:38;;;;;;;;;26.50;22.75;;;;;25.18;63.28;101261.53;5050747;28;45444;-54
2022/05/19 07:28:04;;;;;;;;;27.50;23.00;;;;;25.17;63.22;101264.31;5039005;28;46462;-54
2022/05/19 07:30:29;;;;;;;;;25.00;19.00;;;;;25.18;63.66;101264.19;5038117;28;45640;-54
2022/05/19 07:32:55;;;;;;;;;20.00;18.00;;;;;25.07;64.08;101258.06;5038257;28;45679;-54
2022/05/19 07:35:21;;;;;;;;;26.25;24.25;;;;;25.00;65.29;101256.84;5047838;28;45751;-54
2022/05/19 07:37:46;;;;;;;;;25.75;21.00;;;;;24.89;66.04;101257.69;5048793;28;47492;-55
2022/05/19 07:40:13;;;;;;;;;28.50;23.50;;;;;24.86;65.98;101258.78;5052685;28;45714;-55
2022/05/19 07:42:38;;;;;;;;;27.75;26.25;;;;;24.91;65.38;101265.53;5038461;28;45447;-55
2022/05/19 07:45:05;;;;;;;;;24.75;22.50;;;;;24.96;65.00;101266.00;5040007;28;45268;-55
2022/05/19 07:47:31;;;;;;;;;27.75;24.75;;;;;24.96;65.51;101280.16;5039009;28;47397;-55
2022/05/19 07:49:56;;;;;;;;;27.75;22.50;;;;;25.07;65.43;101282.00;5040850;28;45298;-54
2022/05/19 07:52:22;;;;;;;;;29.25;25.25;;;;;25.24;65.04;101280.66;5040634;28;45248;-54
2022/05/19 07:54:48;;;;;;;;;29.50;27.25;;;;;25.42;64.45;101271.16;5039036;28;45343;-54
2022/05/19 07:57:14;;;;;;;;;23.25;18.75;;;;;25.68;64.05;101283.22;5038996;28;46574;-54
2022/05/19 07:59:39;;;;;;;;;21.75;21.75;;;;;25.70;64.13;101286.59;5041540;28;45632;-53
2022/05/19 08:02:05;;;;;;;;;29.50;26.75;;;;;25.76;63.82;101296.75;5047300;28;45486;-53
2022/05/19 08:04:31;;;;;;;;;27.50;23.25;;;;;25.91;63.07;101299.97;5039038;28;45560;-53
2022/05/19 08:06:56;;;;;;;;;28.25;24.75;;;;;25.96;62.47;101316.38;5037994;28;45340;-52
2022/05/19 08:12:07;;;;;;;;;29.00;24.50;;;;;26.03;61.72;101312.25;5051789;28;45177;-56
2022/05/19 08:17:17;;;;;;;;;26.25;23.00;;;;;26.10;61.24;101331.22;5040664;28;45275;-56
2022/05/19 08:19:43;;;;;;;;;29.00;24.00;;;;;26.21;61.11;101338.31;5048153;28;45246;-56
2022/05/19 08:22:08;;;;;;;;;24.75;23.50;;;;;26.20;60.55;101337.47;5047329;28;45378;-56
2022/05/19 08:24:34;;;;;;;;;24.25;21.50;;;;;26.25;60.55;101356.59;5038138;28;45552;-56
2022/05/19 08:27:00;;;;;;;;;22.75;19.75;;;;;26.29;60.57;101347.38;5039143;28;45573;-56
2022/05/19 08:29:26;;;;;;;;;24.00;23.00;;;;;26.38;59.85;101361.75;5040120;28;45382;-55
2022/05/19 08:31:52;;;;;;;;;23.50;20.75;;;;;26.38;59.33;101367.94;5038773;28;45445;-55
2022/05/19 08:34:18;;;;;;;;;19.50;16.75;;;;;26.26;59.23;101379.63;5036232;28;45529;-62
2022/05/19 08:36:44;;;;;;;;;16.75;16.75;;;;;25.99;59.56;101400.53;5039782;28;45583;-56
2022/05/19 08:39:11;;;;;;;;;17.50;16.25;;;;;25.91;59.37;101406.50;5039049;28;45484;-55
2022/05/19 08:41:36;;;;;;;;;16.00;15.75;;;;;25.83;58.63;101418.72;5039954;28;45264;-55
2022/05/19 08:44:11;;;;;;;;;15.75;14.50;;;;;25.71;58.90;101415.25;5039446;28;45356;-56
2022/05/19 08:46:40;;;;;;;;;17.25;12.75;;;;;25.65;58.43;101413.91;5044671;28;47462;-56
2022/05/19 08:49:15;;;;;;;;;22.25;17.00;;;;;25.58;59.02;101415.34;5045750;28;45389;-56
2022/05/19 08:51:48;;;;;;;;;21.00;17.00;;;;;25.62;58.67;101421.25;5042643;28;45624;-57
2022/05/19 08:54:20;;;;;;;;;17.00;14.50;;;;;25.64;58.70;101417.53;5039984;28;45247;-57
2022/05/19 08:57:01;;;;;;;;;15.00;14.00;;;;;25.83;57.75;101429.38;5040304;28;45448;-67
2022/05/19 08:59:44;;;;;;;;;15.00;13.25;;;;;26.00;57.42;101423.53;5040326;28;45439;-67
2022/05/19 09:02:14;;;;;;;;;17.25;14.50;;;;;26.23;56.74;101433.16;5033133;28;45234;-67
2022/05/19 09:04:52;;;;;;;;;11.25;10.50;;;;;26.21;55.18;101423.56;5046481;28;47439;-67
2022/05/19 09:10:39;;;;;;;;;14.00;10.75;;;;;25.72;55.34;101452.38;5028909;28;45328;-67
2022/05/19 09:13:17;;;;;;;;;9.25;9.25;;;;;25.67;55.31;101459.03;5040412;28;45324;-67
2022/05/19 09:15:45;;;;;;;;;11.25;9.75;;;;;25.71;54.26;101460.50;5044474;28;45483;-68
2022/05/19 09:18:14;;;;;;;;;12.25;10.25;;;;;25.69;54.14;101471.28;5037696;28;46110;-67
2022/05/19 09:20:52;;;;;;;;;12.75;11.50;;;;;25.68;54.09;101493.53;5037346;28;45288;-68
2022/05/19 09:23:17;;;;;;;;;11.25;9.25;;;;;25.69;54.13;101489.91;5039828;28;45299;-67
2022/05/19 09:25:48;;;;;;;;;19.25;16.75;;;;;25.45;53.76;101499.81;5048532;28;45158;-67
2022/05/19 09:28:14;;;;;;;;;20.50;17.00;;;;;25.40;54.00;101508.13;5037654;28;45471;-67
2022/05/19 09:30:53;;;;;;;;;23.25;18.75;;;;;25.10;53.86;101498.03;5039233;28;45719;-67
2022/05/19 09:33:23;;;;;;;;;23.75;16.75;;;;;25.04;53.98;101501.19;5034757;28;45181;-70
2022/05/19 09:35:54;;;;;;;;;21.00;15.50;;;;;24.81;54.52;101499.34;5037040;28;45484;-70
2022/05/19 09:38:26;;;;;;;;;21.75;18.75;;;;;24.67;54.66;101523.50;5044796;28;45398;-70
2022/05/19 09:40:58;;;;;;;;;23.50;18.75;;;;;24.69;54.22;101516.25;5039131;28;45862;-70
2022/05/19 09:43:32;;;;;;;;;21.00;18.00;;;;;24.82;53.79;101522.31;5037102;28;45742;-70
2022/05/19 09:46:05;;;;;;;;;18.00;16.50;;;;;25.03;54.11;101542.03;5036438;28;45446;-71
2022/05/19 09:48:36;;;;;;;;;10.00;10.00;;;;;25.11;52.80;101530.81;5036714;28;45540;-68
2022/05/19 09:51:08;;;;;;;;;15.50;15.00;;;;;25.14;53.64;101536.75;5044844;28;45548;-73
2022/05/19 09:53:47;;;;;;;;;12.00;10.25;;;;;25.30;52.48;101539.09;5042256;28;45359;-71
2022/05/19 09:56:15;;;;;;;;;13.75;11.25;;;;;25.39;52.41;101548.16;5046928;28;45403;-72
2022/05/19 09:58:48;;;;;;;;;9.50;8.00;;;;;25.53;52.31;101545.28;5038540;28;46333;-71
2022/05/19 10:01:29;;;;;;;;;13.25;10.50;;;;;25.78;51.71;101555.75;5047022;28;45484;-71
2022/05/19 10:04:01;;;;;;;;;12.25;11.75;;;;;25.95;51.29;101564.22;5040926;28;45397;-71
2022/05/19 10:06:54;;;;;;;;;11.75;8.75;;;;;26.14;50.88;101553.78;5038338;28;45384;-71
2022/05/19 10:09:30;;;;;;;;;10.00;8.50;;;;;26.22;49.35;101554.00;5038225;28;45556;-71
2022/05/19 10:12:08;;;;;;;;;7.25;6.00;;;;;26.14;49.59;101540.47;5051826;28;45429;-71
2022/05/19 10:14:35;;;;;;;;;10.25;6.75;;;;;26.25;49.06;101543.13;5037465;28;45332;-71
2022/05/19 10:17:30;;;;;;;;;7.00;5.00;;;;;26.25;49.02;101552.94;5037326;28;45697;-71
2022/05/19 10:20:18;;;;;;;;;10.50;7.00;;;;;26.11;48.86;101540.72;5036678;28;45502;-71
2022/05/19 10:23:08;;;;;;;;;8.00;5.25;;;;;26.05;48.83;101570.53;5039593;28;45575;-71
2022/05/19 10:25:48;;;;;;;;;7.00;5.25;;;;;25.95;48.91;101582.88;5046980;28;45450;-72
2022/05/19 10:31:30;;;;;;;;;4.00;4.00;;;;;26.02;48.27;101595.56;5041608;28;45300;-73
2022/05/19 10:33:58;;;;;;;;;5.00;5.00;;;;;26.28;48.26;101576.69;5042147;28;45621;-72
2022/05/19 10:36:44;;;;;;;;;7.75;5.50;;;;;26.66;48.18;101565.59;5040222;28;45309;-72
2022/05/19 10:39:24;;;;;;;;;6.25;4.50;;;;;26.92;46.46;101568.78;5042096;28;45311;-72
2022/05/19 10:42:02;;;;;;;;;4.00;4.00;;;;;27.02;46.12;101566.19;5041989;28;45229;-73
2022/05/19 10:44:46;;;;;;;;;6.50;1.75;;;;;27.01;43.58;101557.34;5041226;28;45513;-73
2022/05/19 10:47:21;;;;;;;;;3.00;3.00;;;;;26.95;43.36;101556.03;5041939;28;45418;-73
2022/05/19 10:49:55;;;;;;;;;1.00;1.00;;;;;26.91;43.63;101557.25;5040405;28;45514;-72
2022/05/19 10:52:36;;;;;;;;;2.00;2.00;;;;;26.96;42.41;101557.72;5042005;28;45545;-72
2022/05/19 10:55:21;;;;;;;;;3.75;2.00;;;;;27.21;43.76;101577.03;5040576;28;45443;-72
2022/05/19 10:58:28;;;;;;;;;4.00;2.50;;;;;27.53;42.96;101567.13;5041891;28;45185;-73
2022/05/19 11:01:05;;;;;;;;;6.25;2.25;;;;;27.70;42.76;101579.06;5024974;28;45440;-73
2022/05/19 11:03:36;;;;;;;;;4.50;2.75;;;;;27.80;42.58;101561.25;5040392;28;46444;-73
2022/05/19 11:06:36;;;;;;;;;4.50;3.25;;;;;27.88;42.10;101561.44;5040673;28;45402;-72
2022/05/19 11:09:39;;;;;;;;;3.00;3.00;;;;;27.95;42.34;101560.91;5038746;28;45451;-73
2022/05/19 11:12:38;;;;;;;;;3.50;2.50;;;;;27.96;40.89;101570.59;5031666;28;45217;-73
2022/05/19 11:15:16;;;;;;;;;2.75;2.00;;;;;27.86;42.28;101567.91;5028132;28;45742;-72
2022/05/19 11:18:02;;;;;;;;;2.50;2.50;;;;;27.96;42.10;101554.56;5038556;28;47324;-75
2022/05/19 11:20:53;;;;;;;;;1.75;1.75;;;;;28.21;41.82;101569.28;5036653;28;45617;-68
2022/05/19 11:23:33;;;;;;;;;3.00;0.25;;;;;28.21;39.95;101567.44;5033440;28;45415;-63
2022/05/19 11:26:24;;;;;;;;;3.00;2.00;;;;;28.22;40.16;101566.47;5041545;28;46365;-73
2022/05/19 11:29:01;;;;;;;;;2.25;2.25;;;;;28.20;40.23;101563.09;5035740;28;45444;-65
2022/05/19 11:31:39;;;;;;;;;3.75;2.00;;;;;28.02;39.44;101564.72;5038393;28;45580;-66
2022/05/19 11:34:18;;;;;;;;;7.00;3.00;;;;;27.91;40.48;101560.31;5038302;28;45356;-66
2022/05/19 11:36:52;;;;;;;;;5.00;3.00;;;;;27.92;39.89;101550.47;5038353;28;45404;-65